sensor_id;sensor_type;location;lat;lon;timestamp;P1;durP1;ratioP1;P2;durP2;ratioP2
25049;SDS011;13046;49.814;9.918;2022-09-23T00:01:18;6.63;;;6.05;;
25049;SDS011;13046;49.814;9.918;2022-09-23T00:03:44;7.20;;;6.60;;
25049;SDS011;13046;49.814;9.918;2022-09-23T00:06:14;7.68;;;6.47;;
25049;SDS011;13046;49.814;9.918;2022-09-23T00:08:41;6.53;;;6.03;;
25049;SDS011;13046;49.814;9.918;2022-09-23T00:11:15;7.38;;;6.60;;
25049;SDS011;13046;49.814;9.918;2022-09-23T00:13:41;8.82;;;8.02;;
25049;SDS011;13046;49.814;9.918;2022-09-23T00:16:10;7.28;;;6.57;;
25049;SDS011;13046;49.814;9.918;2022-09-23T00:18:36;8.18;;;7.18;;
25049;SDS011;13046;49.814;9.918;2022-09-23T00:21:03;7.95;;;6.90;;
25049;SDS011;13046;49.814;9.918;2022-09-23T00:23:29;7.70;;;6.93;;
25049;SDS011;13046;49.814;9.918;2022-09-23T00:25:56;7.40;;;6.80;;
25049;SDS011;13046;49.814;9.918;2022-09-23T00:28:22;7.70;;;6.95;;
25049;SDS011;13046;49.814;9.918;2022-09-23T00:30:48;6.95;;;6.32;;
25049;SDS011;13046;49.814;9.918;2022-09-23T00:33:14;7.25;;;6.55;;
25049;SDS011;13046;49.814;9.918;2022-09-23T00:35:40;9.50;;;6.38;;
25049;SDS011;13046;49.814;9.918;2022-09-23T00:38:06;7.53;;;6.10;;
25049;SDS011;13046;49.814;9.918;2022-09-23T00:40:32;6.55;;;5.93;;
25049;SDS011;13046;49.814;9.918;2022-09-23T00:43:00;7.18;;;6.40;;
25049;SDS011;13046;49.814;9.918;2022-09-23T00:45:26;6.55;;;6.05;;
25049;SDS011;13046;49.814;9.918;2022-09-23T00:47:57;6.72;;;6.13;;
25049;SDS011;13046;49.814;9.918;2022-09-23T00:50:27;7.32;;;6.25;;
25049;SDS011;13046;49.814;9.918;2022-09-23T00:52:55;7.22;;;6.03;;
25049;SDS011;13046;49.814;9.918;2022-09-23T00:55:24;7.40;;;6.63;;
25049;SDS011;13046;49.814;9.918;2022-09-23T00:57:53;6.82;;;5.82;;
25049;SDS011;13046;49.814;9.918;2022-09-23T01:00:20;6.20;;;5.70;;
25049;SDS011;13046;49.814;9.918;2022-09-23T01:02:46;12.65;;;5.90;;
25049;SDS011;13046;49.814;9.918;2022-09-23T01:05:12;6.30;;;5.80;;
25049;SDS011;13046;49.814;9.918;2022-09-23T01:07:38;9.93;;;5.60;;
25049;SDS011;13046;49.814;9.918;2022-09-23T01:10:05;6.47;;;5.82;;
25049;SDS011;13046;49.814;9.918;2022-09-23T01:15:17;7.13;;;6.18;;
25049;SDS011;13046;49.814;9.918;2022-09-23T01:20:47;7.35;;;6.53;;
25049;SDS011;13046;49.814;9.918;2022-09-23T01:23:23;7.90;;;5.88;;
25049;SDS011;13046;49.814;9.918;2022-09-23T01:36:06;7.45;;;6.75;;
25049;SDS011;13046;49.814;9.918;2022-09-23T01:38:56;8.48;;;6.07;;
25049;SDS011;13046;49.814;9.918;2022-09-23T01:43:53;7.50;;;6.90;;
25049;SDS011;13046;49.814;9.918;2022-09-23T01:46:26;6.85;;;6.20;;
25049;SDS011;13046;49.814;9.918;2022-09-23T01:51:23;7.03;;;6.32;;
25049;SDS011;13046;49.814;9.918;2022-09-23T01:53:52;7.15;;;6.63;;
25049;SDS011;13046;49.814;9.918;2022-09-23T01:56:22;6.63;;;5.97;;
25049;SDS011;13046;49.814;9.918;2022-09-23T02:01:27;9.23;;;6.53;;
25049;SDS011;13046;49.814;9.918;2022-09-23T02:04:00;6.70;;;6.10;;
25049;SDS011;13046;49.814;9.918;2022-09-23T02:07:12;6.72;;;6.13;;
25049;SDS011;13046;49.814;9.918;2022-09-23T02:09:18;7.18;;;6.57;;
25049;SDS011;13046;49.814;9.918;2022-09-23T02:11:48;7.63;;;6.57;;
25049;SDS011;13046;49.814;9.918;2022-09-23T02:14:30;8.30;;;7.43;;
25049;SDS011;13046;49.814;9.918;2022-09-23T02:16:59;7.13;;;6.43;;
25049;SDS011;13046;49.814;9.918;2022-09-23T02:19:31;8.07;;;7.13;;
25049;SDS011;13046;49.814;9.918;2022-09-23T02:22:07;6.95;;;6.20;;
25049;SDS011;13046;49.814;9.918;2022-09-23T02:24:35;8.32;;;6.53;;
25049;SDS011;13046;49.814;9.918;2022-09-23T02:29:30;8.38;;;7.57;;
25049;SDS011;13046;49.814;9.918;2022-09-23T02:32:33;8.90;;;6.85;;
25049;SDS011;13046;49.814;9.918;2022-09-23T02:35:10;7.15;;;6.40;;
25049;SDS011;13046;49.814;9.918;2022-09-23T02:40:20;7.10;;;6.50;;
25049;SDS011;13046;49.814;9.918;2022-09-23T02:45:17;7.30;;;6.70;;
25049;SDS011;13046;49.814;9.918;2022-09-23T02:47:44;8.48;;;6.40;;
25049;SDS011;13046;49.814;9.918;2022-09-23T02:50:11;8.35;;;6.88;;
25049;SDS011;13046;49.814;9.918;2022-09-23T02:52:37;8.48;;;6.82;;
25049;SDS011;13046;49.814;9.918;2022-09-23T02:55:05;7.72;;;7.03;;
25049;SDS011;13046;49.814;9.918;2022-09-23T02:57:33;8.07;;;7.38;;
25049;SDS011;13046;49.814;9.918;2022-09-23T02:59:59;8.85;;;7.55;;
25049;SDS011;13046;49.814;9.918;2022-09-23T03:05:20;7.70;;;6.82;;
25049;SDS011;13046;49.814;9.918;2022-09-23T03:07:59;8.27;;;7.13;;
25049;SDS011;13046;49.814;9.918;2022-09-23T03:10:47;8.55;;;7.75;;
25049;SDS011;13046;49.814;9.918;2022-09-23T03:13:20;11.13;;;8.57;;
25049;SDS011;13046;49.814;9.918;2022-09-23T03:16:02;7.68;;;6.97;;
25049;SDS011;13046;49.814;9.918;2022-09-23T03:18:31;9.27;;;8.40;;
25049;SDS011;13046;49.814;9.918;2022-09-23T03:21:02;8.73;;;7.78;;
25049;SDS011;13046;49.814;9.918;2022-09-23T03:23:32;9.93;;;8.68;;
25049;SDS011;13046;49.814;9.918;2022-09-23T03:26:00;10.40;;;7.65;;
25049;SDS011;13046;49.814;9.918;2022-09-23T03:28:28;8.75;;;7.95;;
25049;SDS011;13046;49.814;9.918;2022-09-23T03:30:55;9.65;;;7.85;;
25049;SDS011;13046;49.814;9.918;2022-09-23T03:33:24;9.15;;;7.93;;
25049;SDS011;13046;49.814;9.918;2022-09-23T03:35:53;9.45;;;8.43;;
25049;SDS011;13046;49.814;9.918;2022-09-23T03:38:39;12.30;;;8.77;;
25049;SDS011;13046;49.814;9.918;2022-09-23T03:41:09;10.00;;;8.23;;
25049;SDS011;13046;49.814;9.918;2022-09-23T03:43:36;13.05;;;8.88;;
25049;SDS011;13046;49.814;9.918;2022-09-23T03:46:02;9.48;;;7.72;;
25049;SDS011;13046;49.814;9.918;2022-09-23T03:48:29;11.80;;;8.68;;
25049;SDS011;13046;49.814;9.918;2022-09-23T03:50:55;9.40;;;7.45;;
25049;SDS011;13046;49.814;9.918;2022-09-23T03:53:21;8.48;;;7.78;;
25049;SDS011;13046;49.814;9.918;2022-09-23T03:55:47;9.15;;;8.07;;
25049;SDS011;13046;49.814;9.918;2022-09-23T03:58:13;10.60;;;8.07;;
25049;SDS011;13046;49.814;9.918;2022-09-23T04:00:40;10.68;;;9.15;;
25049;SDS011;13046;49.814;9.918;2022-09-23T04:03:06;9.95;;;8.30;;
25049;SDS011;13046;49.814;9.918;2022-09-23T04:05:32;9.57;;;8.57;;
25049;SDS011;13046;49.814;9.918;2022-09-23T04:08:00;9.52;;;8.40;;
25049;SDS011;13046;49.814;9.918;2022-09-23T04:10:26;13.38;;;8.68;;
25049;SDS011;13046;49.814;9.918;2022-09-23T04:12:52;8.77;;;7.88;;
25049;SDS011;13046;49.814;9.918;2022-09-23T04:15:18;9.68;;;8.77;;
25049;SDS011;13046;49.814;9.918;2022-09-23T04:17:44;9.25;;;8.35;;
25049;SDS011;13046;49.814;9.918;2022-09-23T04:20:10;8.65;;;7.85;;
25049;SDS011;13046;49.814;9.918;2022-09-23T04:22:36;10.25;;;7.63;;
25049;SDS011;13046;49.814;9.918;2022-09-23T04:25:02;9.93;;;8.48;;
25049;SDS011;13046;49.814;9.918;2022-09-23T04:27:28;9.43;;;8.07;;
25049;SDS011;13046;49.814;9.918;2022-09-23T04:29:54;8.98;;;7.88;;
25049;SDS011;13046;49.814;9.918;2022-09-23T04:32:20;9.52;;;8.38;;
25049;SDS011;13046;49.814;9.918;2022-09-23T04:34:46;9.27;;;7.63;;
25049;SDS011;13046;49.814;9.918;2022-09-23T04:37:12;8.10;;;7.47;;
25049;SDS011;13046;49.814;9.918;2022-09-23T04:39:38;9.55;;;8.45;;
25049;SDS011;13046;49.814;9.918;2022-09-23T04:42:04;9.65;;;8.23;;
25049;SDS011;13046;49.814;9.918;2022-09-23T04:44:31;10.88;;;9.05;;
25049;SDS011;13046;49.814;9.918;2022-09-23T04:46:58;12.70;;;9.98;;
25049;SDS011;13046;49.814;9.918;2022-09-23T04:49:24;11.77;;;9.32;;
25049;SDS011;13046;49.814;9.918;2022-09-23T04:51:50;8.93;;;8.07;;
25049;SDS011;13046;49.814;9.918;2022-09-23T04:54:16;10.13;;;9.05;;
25049;SDS011;13046;49.814;9.918;2022-09-23T04:56:43;10.80;;;8.95;;
25049;SDS011;13046;49.814;9.918;2022-09-23T04:59:09;9.18;;;7.45;;
25049;SDS011;13046;49.814;9.918;2022-09-23T05:01:35;8.80;;;7.93;;
25049;SDS011;13046;49.814;9.918;2022-09-23T05:04:06;9.85;;;8.95;;
25049;SDS011;13046;49.814;9.918;2022-09-23T05:06:32;13.48;;;12.18;;
25049;SDS011;13046;49.814;9.918;2022-09-23T05:08:59;13.65;;;12.32;;
25049;SDS011;13046;49.814;9.918;2022-09-23T05:11:26;9.95;;;8.57;;
25049;SDS011;13046;49.814;9.918;2022-09-23T05:13:53;13.70;;;11.18;;
25049;SDS011;13046;49.814;9.918;2022-09-23T05:16:20;11.32;;;10.35;;
25049;SDS011;13046;49.814;9.918;2022-09-23T05:18:47;14.05;;;12.15;;
25049;SDS011;13046;49.814;9.918;2022-09-23T05:21:14;11.63;;;10.25;;
25049;SDS011;13046;49.814;9.918;2022-09-23T05:23:41;13.70;;;11.52;;
25049;SDS011;13046;49.814;9.918;2022-09-23T05:26:08;10.50;;;9.52;;
25049;SDS011;13046;49.814;9.918;2022-09-23T05:28:35;12.18;;;10.52;;
25049;SDS011;13046;49.814;9.918;2022-09-23T05:31:04;10.20;;;9.20;;
25049;SDS011;13046;49.814;9.918;2022-09-23T05:33:34;8.95;;;8.25;;
25049;SDS011;13046;49.814;9.918;2022-09-23T05:36:00;8.50;;;7.65;;
25049;SDS011;13046;49.814;9.918;2022-09-23T05:38:27;9.90;;;8.68;;
25049;SDS011;13046;49.814;9.918;2022-09-23T05:40:54;8.45;;;7.60;;
25049;SDS011;13046;49.814;9.918;2022-09-23T05:43:20;12.85;;;11.02;;
25049;SDS011;13046;49.814;9.918;2022-09-23T05:45:46;10.95;;;9.80;;
25049;SDS011;13046;49.814;9.918;2022-09-23T05:48:12;10.57;;;9.48;;
25049;SDS011;13046;49.814;9.918;2022-09-23T05:50:38;11.55;;;10.32;;
25049;SDS011;13046;49.814;9.918;2022-09-23T05:53:04;10.02;;;9.07;;
25049;SDS011;13046;49.814;9.918;2022-09-23T05:55:30;11.27;;;9.77;;
25049;SDS011;13046;49.814;9.918;2022-09-23T05:57:57;12.35;;;11.05;;
25049;SDS011;13046;49.814;9.918;2022-09-23T06:00:23;10.55;;;9.55;;
25049;SDS011;13046;49.814;9.918;2022-09-23T06:02:50;11.38;;;10.30;;
25049;SDS011;13046;49.814;9.918;2022-09-23T06:05:16;11.55;;;10.30;;
25049;SDS011;13046;49.814;9.918;2022-09-23T06:07:42;10.70;;;9.07;;
25049;SDS011;13046;49.814;9.918;2022-09-23T06:10:08;9.43;;;8.55;;
25049;SDS011;13046;49.814;9.918;2022-09-23T06:12:34;10.45;;;9.40;;
25049;SDS011;13046;49.814;9.918;2022-09-23T06:15:00;9.75;;;8.80;;
25049;SDS011;13046;49.814;9.918;2022-09-23T06:17:26;10.52;;;9.00;;
25049;SDS011;13046;49.814;9.918;2022-09-23T06:19:52;11.75;;;9.85;;
25049;SDS011;13046;49.814;9.918;2022-09-23T06:22:18;10.43;;;9.55;;
25049;SDS011;13046;49.814;9.918;2022-09-23T06:24:44;10.80;;;9.70;;
25049;SDS011;13046;49.814;9.918;2022-09-23T06:27:13;11.93;;;10.82;;
25049;SDS011;13046;49.814;9.918;2022-09-23T06:29:39;13.70;;;10.85;;
25049;SDS011;13046;49.814;9.918;2022-09-23T06:32:05;10.98;;;9.98;;
25049;SDS011;13046;49.814;9.918;2022-09-23T06:34:31;12.85;;;11.05;;
25049;SDS011;13046;49.814;9.918;2022-09-23T06:36:57;11.85;;;10.35;;
25049;SDS011;13046;49.814;9.918;2022-09-23T06:39:23;11.70;;;10.38;;
25049;SDS011;13046;49.814;9.918;2022-09-23T06:41:49;12.18;;;10.93;;
25049;SDS011;13046;49.814;9.918;2022-09-23T06:44:15;12.43;;;11.32;;
25049;SDS011;13046;49.814;9.918;2022-09-23T06:46:41;17.27;;;10.55;;
25049;SDS011;13046;49.814;9.918;2022-09-23T06:49:08;12.05;;;10.85;;
25049;SDS011;13046;49.814;9.918;2022-09-23T06:51:36;13.55;;;12.23;;
25049;SDS011;13046;49.814;9.918;2022-09-23T06:54:02;11.60;;;10.50;;
25049;SDS011;13046;49.814;9.918;2022-09-23T06:56:28;12.52;;;11.38;;
25049;SDS011;13046;49.814;9.918;2022-09-23T06:58:54;14.48;;;13.13;;
25049;SDS011;13046;49.814;9.918;2022-09-23T07:01:19;15.20;;;12.45;;
25049;SDS011;13046;49.814;9.918;2022-09-23T07:03:46;15.50;;;11.88;;
25049;SDS011;13046;49.814;9.918;2022-09-23T07:06:12;13.30;;;11.90;;
25049;SDS011;13046;49.814;9.918;2022-09-23T07:08:42;16.13;;;13.43;;
25049;SDS011;13046;49.814;9.918;2022-09-23T07:11:08;21.58;;;12.40;;
25049;SDS011;13046;49.814;9.918;2022-09-23T07:13:36;16.88;;;13.25;;
25049;SDS011;13046;49.814;9.918;2022-09-23T07:16:03;14.82;;;13.50;;
25049;SDS011;13046;49.814;9.918;2022-09-23T07:18:30;17.90;;;12.70;;
25049;SDS011;13046;49.814;9.918;2022-09-23T07:21:19;16.30;;;12.98;;
25049;SDS011;13046;49.814;9.918;2022-09-23T07:23:48;17.85;;;14.95;;
25049;SDS011;13046;49.814;9.918;2022-09-23T07:26:16;14.93;;;13.43;;
25049;SDS011;13046;49.814;9.918;2022-09-23T07:28:43;18.92;;;16.13;;
25049;SDS011;13046;49.814;9.918;2022-09-23T07:31:11;17.70;;;15.80;;
25049;SDS011;13046;49.814;9.918;2022-09-23T07:33:37;17.33;;;15.45;;
25049;SDS011;13046;49.814;9.918;2022-09-23T07:36:08;17.63;;;15.52;;
25049;SDS011;13046;49.814;9.918;2022-09-23T07:38:35;19.90;;;16.92;;
25049;SDS011;13046;49.814;9.918;2022-09-23T07:41:08;25.00;;;16.67;;
25049;SDS011;13046;49.814;9.918;2022-09-23T07:43:35;18.92;;;16.45;;
25049;SDS011;13046;49.814;9.918;2022-09-23T07:46:09;17.90;;;15.55;;
25049;SDS011;13046;49.814;9.918;2022-09-23T07:48:36;19.83;;;16.80;;
25049;SDS011;13046;49.814;9.918;2022-09-23T07:51:06;19.75;;;16.10;;
25049;SDS011;13046;49.814;9.918;2022-09-23T07:53:33;24.95;;;17.65;;
25049;SDS011;13046;49.814;9.918;2022-09-23T07:55:59;21.85;;;17.05;;
25049;SDS011;13046;49.814;9.918;2022-09-23T07:58:25;20.90;;;17.77;;
25049;SDS011;13046;49.814;9.918;2022-09-23T08:00:51;22.90;;;17.02;;
25049;SDS011;13046;49.814;9.918;2022-09-23T08:03:18;18.13;;;16.23;;
25049;SDS011;13046;49.814;9.918;2022-09-23T08:05:44;17.50;;;15.43;;
25049;SDS011;13046;49.814;9.918;2022-09-23T08:08:10;17.83;;;15.93;;
25049;SDS011;13046;49.814;9.918;2022-09-23T08:10:38;16.42;;;14.50;;
25049;SDS011;13046;49.814;9.918;2022-09-23T08:13:04;16.90;;;14.63;;
25049;SDS011;13046;49.814;9.918;2022-09-23T08:15:30;14.73;;;13.23;;
25049;SDS011;13046;49.814;9.918;2022-09-23T08:17:59;19.08;;;14.40;;
25049;SDS011;13046;49.814;9.918;2022-09-23T08:20:26;16.50;;;14.80;;
25049;SDS011;13046;49.814;9.918;2022-09-23T08:23:11;19.90;;;16.05;;
25049;SDS011;13046;49.814;9.918;2022-09-23T08:25:41;16.27;;;14.50;;
25049;SDS011;13046;49.814;9.918;2022-09-23T08:28:07;20.48;;;14.45;;
25049;SDS011;13046;49.814;9.918;2022-09-23T08:30:34;16.00;;;14.35;;
25049;SDS011;13046;49.814;9.918;2022-09-23T08:33:00;17.52;;;15.15;;
25049;SDS011;13046;49.814;9.918;2022-09-23T08:35:26;15.63;;;13.98;;
25049;SDS011;13046;49.814;9.918;2022-09-23T08:37:52;16.17;;;14.48;;
25049;SDS011;13046;49.814;9.918;2022-09-23T08:40:18;15.90;;;14.27;;
25049;SDS011;13046;49.814;9.918;2022-09-23T08:42:44;15.73;;;14.00;;
25049;SDS011;13046;49.814;9.918;2022-09-23T08:45:14;16.10;;;14.35;;
25049;SDS011;13046;49.814;9.918;2022-09-23T08:47:56;18.83;;;14.45;;
25049;SDS011;13046;49.814;9.918;2022-09-23T08:50:30;18.20;;;14.30;;
25049;SDS011;13046;49.814;9.918;2022-09-23T08:55:41;15.68;;;14.15;;
25049;SDS011;13046;49.814;9.918;2022-09-23T09:00:43;21.90;;;17.00;;
25049;SDS011;13046;49.814;9.918;2022-09-23T09:03:22;16.35;;;12.60;;
25049;SDS011;13046;49.814;9.918;2022-09-23T09:05:49;16.88;;;13.57;;
25049;SDS011;13046;49.814;9.918;2022-09-23T09:08:21;13.88;;;12.45;;
25049;SDS011;13046;49.814;9.918;2022-09-23T09:10:48;16.75;;;13.07;;
25049;SDS011;13046;49.814;9.918;2022-09-23T09:13:30;14.07;;;12.57;;
25049;SDS011;13046;49.814;9.918;2022-09-23T09:16:11;15.10;;;13.60;;
25049;SDS011;13046;49.814;9.918;2022-09-23T09:18:51;14.77;;;12.45;;
25049;SDS011;13046;49.814;9.918;2022-09-23T09:21:18;13.23;;;12.02;;
25049;SDS011;13046;49.814;9.918;2022-09-23T09:23:55;12.82;;;11.55;;
25049;SDS011;13046;49.814;9.918;2022-09-23T09:26:23;13.23;;;11.93;;
25049;SDS011;13046;49.814;9.918;2022-09-23T09:28:54;13.50;;;12.05;;
25049;SDS011;13046;49.814;9.918;2022-09-23T09:34:08;12.52;;;11.30;;
25049;SDS011;13046;49.814;9.918;2022-09-23T09:39:20;13.45;;;11.50;;
25049;SDS011;13046;49.814;9.918;2022-09-23T09:41:48;15.32;;;11.80;;
25049;SDS011;13046;49.814;9.918;2022-09-23T09:44:21;12.55;;;11.40;;
25049;SDS011;13046;49.814;9.918;2022-09-23T09:46:50;10.90;;;9.98;;
25049;SDS011;13046;49.814;9.918;2022-09-23T09:49:25;11.00;;;9.90;;
25049;SDS011;13046;49.814;9.918;2022-09-23T09:52:12;10.85;;;9.73;;
25049;SDS011;13046;49.814;9.918;2022-09-23T09:54:38;12.13;;;10.93;;
25049;SDS011;13046;49.814;9.918;2022-09-23T09:57:16;10.90;;;9.73;;
25049;SDS011;13046;49.814;9.918;2022-09-23T09:59:43;10.25;;;8.75;;
25049;SDS011;13046;49.814;9.918;2022-09-23T10:04:41;11.60;;;8.60;;
25049;SDS011;13046;49.814;9.918;2022-09-23T10:07:10;9.80;;;8.80;;
25049;SDS011;13046;49.814;9.918;2022-09-23T10:09:37;12.02;;;9.82;;
25049;SDS011;13046;49.814;9.918;2022-09-23T10:14:37;9.95;;;8.73;;
25049;SDS011;13046;49.814;9.918;2022-09-23T10:17:03;14.27;;;9.65;;
25049;SDS011;13046;49.814;9.918;2022-09-23T10:19:30;11.13;;;10.07;;
25049;SDS011;13046;49.814;9.918;2022-09-23T10:22:01;10.15;;;8.38;;
25049;SDS011;13046;49.814;9.918;2022-09-23T10:24:30;9.20;;;8.32;;
25049;SDS011;13046;49.814;9.918;2022-09-23T10:27:01;8.98;;;8.18;;
25049;SDS011;13046;49.814;9.918;2022-09-23T10:29:29;10.38;;;9.02;;
25049;SDS011;13046;49.814;9.918;2022-09-23T10:32:13;8.88;;;7.97;;
25049;SDS011;13046;49.814;9.918;2022-09-23T10:34:41;9.10;;;8.20;;
25049;SDS011;13046;49.814;9.918;2022-09-23T10:37:17;11.77;;;8.40;;
25049;SDS011;13046;49.814;9.918;2022-09-23T10:39:43;8.50;;;7.80;;
25049;SDS011;13046;49.814;9.918;2022-09-23T10:42:39;8.57;;;7.88;;
25049;SDS011;13046;49.814;9.918;2022-09-23T10:45:32;9.25;;;7.53;;
25049;SDS011;13046;49.814;9.918;2022-09-23T10:48:21;8.65;;;6.68;;
25049;SDS011;13046;49.814;9.918;2022-09-23T10:50:50;7.30;;;6.57;;
25049;SDS011;13046;49.814;9.918;2022-09-23T10:53:36;8.50;;;7.70;;
25049;SDS011;13046;49.814;9.918;2022-09-23T10:58:56;8.70;;;7.88;;
25049;SDS011;13046;49.814;9.918;2022-09-23T11:01:48;7.03;;;6.32;;
25049;SDS011;13046;49.814;9.918;2022-09-23T11:07:05;5.82;;;5.32;;
25049;SDS011;13046;49.814;9.918;2022-09-23T11:09:39;9.73;;;6.60;;
25049;SDS011;13046;49.814;9.918;2022-09-23T11:17:09;6.35;;;5.80;;
25049;SDS011;13046;49.814;9.918;2022-09-23T11:27:58;5.40;;;4.95;;
25049;SDS011;13046;49.814;9.918;2022-09-23T11:30:47;10.25;;;4.32;;
25049;SDS011;13046;49.814;9.918;2022-09-23T11:33:21;6.00;;;5.50;;
25049;SDS011;13046;49.814;9.918;2022-09-23T11:35:49;7.50;;;5.22;;
25049;SDS011;13046;49.814;9.918;2022-09-23T11:38:20;6.13;;;4.72;;
25049;SDS011;13046;49.814;9.918;2022-09-23T11:41:00;6.63;;;6.13;;
25049;SDS011;13046;49.814;9.918;2022-09-23T11:43:29;5.28;;;4.65;;
25049;SDS011;13046;49.814;9.918;2022-09-23T11:46:00;6.60;;;5.05;;
25049;SDS011;13046;49.814;9.918;2022-09-23T11:48:38;5.70;;;5.13;;
25049;SDS011;13046;49.814;9.918;2022-09-23T11:51:13;5.20;;;4.80;;
25049;SDS011;13046;49.814;9.918;2022-09-23T11:54:01;6.00;;;5.45;;
25049;SDS011;13046;49.814;9.918;2022-09-23T11:56:44;5.15;;;4.65;;
25049;SDS011;13046;49.814;9.918;2022-09-23T11:59:24;9.70;;;4.75;;
25049;SDS011;13046;49.814;9.918;2022-09-23T12:01:54;4.82;;;3.88;;
25049;SDS011;13046;49.814;9.918;2022-09-23T12:04:29;5.38;;;4.97;;
25049;SDS011;13046;49.814;9.918;2022-09-23T12:09:33;6.40;;;5.72;;
25049;SDS011;13046;49.814;9.918;2022-09-23T12:28:16;5.20;;;4.70;;
25049;SDS011;13046;49.814;9.918;2022-09-23T12:30:45;4.72;;;3.63;;
25049;SDS011;13046;49.814;9.918;2022-09-23T12:35:41;4.05;;;3.30;;
25049;SDS011;13046;49.814;9.918;2022-09-23T12:38:31;4.15;;;3.80;;
25049;SDS011;13046;49.814;9.918;2022-09-23T12:40:57;4.47;;;4.07;;
25049;SDS011;13046;49.814;9.918;2022-09-23T12:43:33;5.47;;;4.07;;
25049;SDS011;13046;49.814;9.918;2022-09-23T12:46:19;4.07;;;3.72;;
25049;SDS011;13046;49.814;9.918;2022-09-23T12:51:22;4.07;;;3.67;;
25049;SDS011;13046;49.814;9.918;2022-09-23T12:53:58;3.63;;;3.30;;
25049;SDS011;13046;49.814;9.918;2022-09-23T12:58:56;4.63;;;3.97;;
25049;SDS011;13046;49.814;9.918;2022-09-23T13:01:22;5.93;;;3.75;;
25049;SDS011;13046;49.814;9.918;2022-09-23T13:03:56;3.50;;;3.20;;
25049;SDS011;13046;49.814;9.918;2022-09-23T13:06:42;4.15;;;3.80;;
25049;SDS011;13046;49.814;9.918;2022-09-23T13:09:13;4.55;;;4.15;;
25049;SDS011;13046;49.814;9.918;2022-09-23T13:11:41;5.20;;;4.70;;
25049;SDS011;13046;49.814;9.918;2022-09-23T13:14:08;5.03;;;3.88;;
25049;SDS011;13046;49.814;9.918;2022-09-23T13:16:42;5.45;;;4.68;;
25049;SDS011;13046;49.814;9.918;2022-09-23T13:22:09;4.43;;;4.03;;
25049;SDS011;13046;49.814;9.918;2022-09-23T13:24:37;4.88;;;4.47;;
25049;SDS011;13046;49.814;9.918;2022-09-23T13:27:10;5.03;;;3.92;;
25049;SDS011;13046;49.814;9.918;2022-09-23T13:29:39;4.60;;;3.70;;
25049;SDS011;13046;49.814;9.918;2022-09-23T13:32:11;3.45;;;3.25;;
25049;SDS011;13046;49.814;9.918;2022-09-23T13:34:39;3.72;;;3.33;;
25049;SDS011;13046;49.814;9.918;2022-09-23T13:37:21;3.92;;;3.63;;
25049;SDS011;13046;49.814;9.918;2022-09-23T13:39:47;3.50;;;3.20;;
25049;SDS011;13046;49.814;9.918;2022-09-23T13:42:26;4.82;;;3.92;;
25049;SDS011;13046;49.814;9.918;2022-09-23T13:44:54;6.72;;;4.53;;
25049;SDS011;13046;49.814;9.918;2022-09-23T13:47:22;3.80;;;3.28;;
25049;SDS011;13046;49.814;9.918;2022-09-23T13:49:52;3.90;;;3.35;;
25049;SDS011;13046;49.814;9.918;2022-09-23T13:52:25;4.00;;;3.60;;
25049;SDS011;13046;49.814;9.918;2022-09-23T13:54:53;3.78;;;3.28;;
25049;SDS011;13046;49.814;9.918;2022-09-23T13:57:30;5.75;;;3.45;;
25049;SDS011;13046;49.814;9.918;2022-09-23T14:02:42;4.43;;;3.50;;
25049;SDS011;13046;49.814;9.918;2022-09-23T14:05:10;3.70;;;3.40;;
25049;SDS011;13046;49.814;9.918;2022-09-23T14:07:36;3.38;;;3.08;;
25049;SDS011;13046;49.814;9.918;2022-09-23T14:10:04;5.00;;;4.50;;
25049;SDS011;13046;49.814;9.918;2022-09-23T14:12:32;5.20;;;3.85;;
25049;SDS011;13046;49.814;9.918;2022-09-23T14:14:58;4.35;;;4.03;;
25049;SDS011;13046;49.814;9.918;2022-09-23T14:17:24;4.50;;;3.83;;
25049;SDS011;13046;49.814;9.918;2022-09-23T14:19:50;7.07;;;4.13;;
25049;SDS011;13046;49.814;9.918;2022-09-23T14:22:21;4.57;;;4.18;;
25049;SDS011;13046;49.814;9.918;2022-09-23T14:24:47;5.07;;;3.90;;
25049;SDS011;13046;49.814;9.918;2022-09-23T14:27:14;4.35;;;4.05;;
25049;SDS011;13046;49.814;9.918;2022-09-23T14:29:43;3.55;;;3.22;;
25049;SDS011;13046;49.814;9.918;2022-09-23T14:37:15;4.70;;;4.30;;
25049;SDS011;13046;49.814;9.918;2022-09-23T14:40:04;5.40;;;3.38;;
25049;SDS011;13046;49.814;9.918;2022-09-23T14:42:31;4.68;;;4.25;;
25049;SDS011;13046;49.814;9.918;2022-09-23T14:45:03;6.03;;;4.07;;
25049;SDS011;13046;49.814;9.918;2022-09-23T14:47:30;3.42;;;3.13;;
25049;SDS011;13046;49.814;9.918;2022-09-23T14:49:57;4.20;;;2.97;;
25049;SDS011;13046;49.814;9.918;2022-09-23T14:52:48;4.65;;;3.10;;
25049;SDS011;13046;49.814;9.918;2022-09-23T14:55:15;3.42;;;3.22;;
25049;SDS011;13046;49.814;9.918;2022-09-23T14:57:42;3.30;;;3.08;;
25049;SDS011;13046;49.814;9.918;2022-09-23T15:00:17;5.55;;;4.93;;
25049;SDS011;13046;49.814;9.918;2022-09-23T15:02:43;3.88;;;3.22;;
25049;SDS011;13046;49.814;9.918;2022-09-23T15:07:39;3.72;;;2.78;;
25049;SDS011;13046;49.814;9.918;2022-09-23T15:10:16;4.63;;;3.35;;
25049;SDS011;13046;49.814;9.918;2022-09-23T15:12:45;3.90;;;3.28;;
25049;SDS011;13046;49.814;9.918;2022-09-23T15:15:14;4.32;;;3.65;;
25049;SDS011;13046;49.814;9.918;2022-09-23T15:17:41;5.07;;;3.40;;
25049;SDS011;13046;49.814;9.918;2022-09-23T15:20:15;4.78;;;3.50;;
25049;SDS011;13046;49.814;9.918;2022-09-23T15:22:47;2.92;;;2.72;;
25049;SDS011;13046;49.814;9.918;2022-09-23T15:25:14;3.42;;;3.20;;
25049;SDS011;13046;49.814;9.918;2022-09-23T15:27:41;3.85;;;3.55;;
25049;SDS011;13046;49.814;9.918;2022-09-23T15:30:14;6.07;;;3.22;;
25049;SDS011;13046;49.814;9.918;2022-09-23T15:32:42;3.65;;;3.35;;
25049;SDS011;13046;49.814;9.918;2022-09-23T15:35:18;7.10;;;4.88;;
25049;SDS011;13046;49.814;9.918;2022-09-23T15:37:45;4.25;;;3.90;;
25049;SDS011;13046;49.814;9.918;2022-09-23T15:40:16;6.80;;;3.80;;
25049;SDS011;13046;49.814;9.918;2022-09-23T15:42:44;3.55;;;3.15;;
25049;SDS011;13046;49.814;9.918;2022-09-23T15:45:15;4.05;;;3.05;;
25049;SDS011;13046;49.814;9.918;2022-09-23T15:47:41;4.22;;;2.95;;
25049;SDS011;13046;49.814;9.918;2022-09-23T15:50:10;4.25;;;3.40;;
25049;SDS011;13046;49.814;9.918;2022-09-23T15:52:36;3.75;;;2.60;;
25049;SDS011;13046;49.814;9.918;2022-09-23T15:55:14;2.70;;;2.50;;
25049;SDS011;13046;49.814;9.918;2022-09-23T15:57:40;3.10;;;2.80;;
25049;SDS011;13046;49.814;9.918;2022-09-23T16:00:07;4.72;;;3.90;;
25049;SDS011;13046;49.814;9.918;2022-09-23T16:02:37;3.47;;;3.17;;
25049;SDS011;13046;49.814;9.918;2022-09-23T16:05:03;3.33;;;3.13;;
25049;SDS011;13046;49.814;9.918;2022-09-23T16:07:30;7.03;;;2.95;;
25049;SDS011;13046;49.814;9.918;2022-09-23T16:09:56;4.68;;;3.05;;
25049;SDS011;13046;49.814;9.918;2022-09-23T16:12:22;4.28;;;3.22;;
25049;SDS011;13046;49.814;9.918;2022-09-23T16:14:49;5.53;;;4.93;;
25049;SDS011;13046;49.814;9.918;2022-09-23T16:17:15;5.65;;;4.20;;
25049;SDS011;13046;49.814;9.918;2022-09-23T16:19:42;4.95;;;3.92;;
25049;SDS011;13046;49.814;9.918;2022-09-23T16:22:09;3.88;;;3.45;;
25049;SDS011;13046;49.814;9.918;2022-09-23T16:24:38;5.82;;;4.95;;
25049;SDS011;13046;49.814;9.918;2022-09-23T16:27:05;5.95;;;5.03;;
25049;SDS011;13046;49.814;9.918;2022-09-23T16:29:31;7.00;;;5.72;;
25049;SDS011;13046;49.814;9.918;2022-09-23T16:31:58;5.28;;;4.68;;
25049;SDS011;13046;49.814;9.918;2022-09-23T16:34:25;5.38;;;3.63;;
25049;SDS011;13046;49.814;9.918;2022-09-23T16:36:51;3.80;;;3.50;;
25049;SDS011;13046;49.814;9.918;2022-09-23T16:39:17;4.57;;;4.18;;
25049;SDS011;13046;49.814;9.918;2022-09-23T16:41:44;5.50;;;4.60;;
25049;SDS011;13046;49.814;9.918;2022-09-23T16:44:10;4.63;;;4.22;;